Time;durP1;ratioP1;P1;durP2;ratioP2;P2;SDS_P1;SDS_P2;PMS_P1;PMS_P2;Temp;Humidity;BMP_temperature;BMP_pressure;BME280_temperature;BME280_humidity;BME280_pressure;Samples;Min_cycle;Max_cycle;Signal;HPM_P1;HPM_P2
2022/08/25 00:02:09;;;;;;;4.78;4.20;;;17.40;99.90;;;;;;5059875;28;20052;-87
2022/08/25 00:04:57;;;;;;;5.80;4.28;;;17.20;1.00;;;;;;5059860;28;20071;-88
2022/08/25 00:07:44;;;;;;;7.22;4.40;;;17.00;1.00;;;;;;5072714;28;20112;-87
2022/08/25 00:10:38;;;;;;;8.85;4.10;;;16.90;99.90;;;;;;5059037;28;20052;-87
2022/08/25 00:13:28;;;;;;;8.10;4.18;;;16.80;99.90;;;;;;5067161;28;20398;-88
2022/08/25 00:16:17;;;;;;;7.13;4.65;;;16.70;1.00;;;;;;5060114;28;20468;-87
2022/08/25 00:19:09;;;;;;;7.13;4.38;;;16.60;99.90;;;;;;5075832;28;20045;-87
2022/08/25 00:21:57;;;;;;;5.90;4.40;;;16.60;99.90;;;;;;5074479;28;20061;-88
2022/08/25 00:24:48;;;;;;;4.68;4.25;;;16.50;1.00;;;;;;5085037;28;20048;-88
2022/08/25 00:27:38;;;;;;;10.02;4.35;;;16.40;99.90;;;;;;5077408;28;20055;-87
2022/08/25 00:30:25;;;;;;;4.82;4.32;;;16.40;1.00;;;;;;5072811;28;20044;-87
2022/08/25 00:33:13;;;;;;;5.85;4.60;;;16.30;4.90;;;;;;5077393;28;20048;-87
2022/08/25 00:36:00;;;;;;;6.85;4.53;;;16.30;99.90;;;;;;5073184;28;20076;-88
2022/08/25 00:38:48;;;;;;;5.60;4.70;;;16.20;1.00;;;;;;5073518;28;20122;-88
2022/08/25 00:41:40;;;;;;;8.25;5.30;;;16.10;6.40;;;;;;5073409;28;20047;-88
2022/08/25 00:44:30;;;;;;;5.30;4.45;;;16.10;99.90;;;;;;5065957;28;20097;-88
2022/08/25 00:47:17;;;;;;;5.78;4.75;;;16.00;99.90;;;;;;5065007;28;20067;-88
2022/08/25 00:50:07;;;;;;;10.52;4.70;;;16.00;1.00;;;;;;5069058;28;20060;-88
2022/08/25 00:52:58;;;;;;;6.82;4.70;;;16.00;1.00;;;;;;5076885;28;20178;-88
2022/08/25 00:55:46;;;;;;;7.57;5.25;;;15.90;99.90;;;;;;5046878;28;20033;-87
2022/08/25 00:58:36;;;;;;;5.97;4.65;;;15.90;1.00;;;;;;5081006;28;20129;-87
2022/08/25 01:01:25;;;;;;;6.50;4.88;;;15.80;99.90;;;;;;5079731;28;20045;-88
2022/08/25 01:04:13;;;;;;;7.15;5.10;;;15.80;1.00;;;;;;5085553;28;20060;-82
2022/08/25 01:07:01;;;;;;;5.40;4.90;;;15.90;24.10;;;;;;5096316;28;20071;-82
2022/08/25 01:09:50;;;;;;;5.30;4.72;;;16.00;1.00;;;;;;5087682;28;20036;-86
2022/08/25 01:12:41;;;;;;;7.72;4.65;;;16.10;99.90;;;;;;5065655;28;20025;-86
2022/08/25 01:15:31;;;;;;;4.90;4.38;;;16.20;1.00;;;;;;5082152;28;20484;-87
2022/08/25 01:18:28;;;;;;;5.70;4.57;;;16.10;1.00;;;;;;5071092;28;20047;-87
2022/08/25 01:21:17;;;;;;;7.05;5.43;;;16.00;99.90;;;;;;5082311;28;20052;-87
2022/08/25 01:24:10;;;;;;;5.32;4.80;;;15.90;1.00;;;;;;5073699;28;20099;-86
2022/08/25 01:26:57;;;;;;;6.40;5.25;;;16.00;1.00;;;;;;5067643;28;20052;-88
2022/08/25 01:29:45;;;;;;;10.40;5.28;;;16.00;99.90;;;;;;5057787;28;20435;-88
2022/08/25 01:32:35;;;;;;;6.45;4.75;;;16.10;99.90;;;;;;5059339;28;20052;-89
2022/08/25 01:35:23;;;;;;;7.63;5.13;;;16.00;99.90;;;;;;5056618;28;20040;-89
2022/08/25 01:38:11;;;;;;;6.30;4.90;;;15.90;99.90;;;;;;5092717;28;20181;-89
2022/08/25 01:40:58;;;;;;;6.90;5.03;;;15.80;1.00;;;;;;5063784;28;20110;-88
2022/08/25 01:43:45;;;;;;;6.25;5.28;;;15.70;99.90;;;;;;5067175;28;20479;-91
2022/08/25 01:46:33;;;;;;;6.22;5.60;;;15.60;99.90;;;;;;5079132;28;20130;-87
2022/08/25 01:49:22;;;;;;;6.45;5.75;;;15.60;1.00;;;;;;5080648;28;20051;-88
2022/08/25 01:52:26;;;;;;;7.57;5.72;;;15.50;1.00;;;;;;5070880;28;20131;-87
2022/08/25 01:55:14;;;;;;;7.15;5.40;;;15.40;99.90;;;;;;5081637;28;20040;-89
2022/08/25 01:58:05;;;;;;;9.07;5.85;;;15.40;1.00;;;;;;5076134;28;20040;-89
2022/08/25 02:00:55;;;;;;;7.13;6.22;;;15.30;1.00;;;;;;5075775;28;20122;-89
2022/08/25 02:03:46;;;;;;;6.97;6.28;;;15.40;99.90;;;;;;5074657;28;20454;-90
2022/08/25 02:06:34;;;;;;;9.63;5.82;;;15.40;1.00;;;;;;5056213;28;20083;-88
2022/08/25 02:09:21;;;;;;;6.55;5.90;;;15.40;8.20;;;;;;5075280;28;20052;-90
2022/08/25 02:12:11;;;;;;;10.13;6.25;;;15.50;99.90;;;;;;5061858;28;20107;-89
2022/08/25 02:15:00;;;;;;;8.20;6.25;;;15.60;1.90;;;;;;5068853;28;20356;-90
2022/08/25 02:17:50;;;;;;;9.85;6.65;;;15.80;99.90;;;;;;5071595;28;20059;-87
2022/08/25 02:20:37;;;;;;;6.57;5.35;;;15.80;33.40;;;;;;5082728;28;20055;-87
2022/08/25 02:23:25;;;;;;;8.98;6.05;;;15.80;1.00;;;;;;5064540;28;20070;-88
2022/08/25 02:26:18;;;;;;;6.55;5.60;;;15.90;1.00;;;;;;5072366;28;20127;-89
2022/08/25 02:29:06;;;;;;;;;;;16.10;1.00;;;;;;5074108;28;20036;-86
2022/08/25 02:31:55;;;;;;;6.63;5.45;;;16.30;1.00;;;;;;5075366;28;19920;-87
2022/08/25 02:34:45;;;;;;;5.90;5.30;;;16.40;99.90;;;;;;5073756;28;20106;-87
2022/08/25 02:37:34;;;;;;;7.55;5.50;;;16.40;1.00;;;;;;5077657;28;20127;-89
2022/08/25 02:40:21;;;;;;;6.20;5.13;;;16.40;1.00;;;;;;5087703;28;20040;-85
2022/08/25 02:43:13;;;;;;;7.65;5.97;;;16.50;99.90;;;;;;5075859;28;20044;-86
2022/08/25 02:46:00;;;;;;;7.35;5.57;;;16.50;99.90;;;;;;5060850;28;20098;-87
2022/08/25 02:48:53;;;;;;;8.98;5.50;;;16.50;1.00;;;;;;5071343;28;20049;-87
2022/08/25 02:51:40;;;;;;;8.90;5.90;;;16.50;1.00;;;;;;5069171;28;20076;-88
2022/08/25 02:54:29;;;;;;;6.75;5.97;;;16.40;1.00;;;;;;5067809;28;20431;-88
2022/08/25 02:57:21;;;;;;;6.10;5.50;;;16.40;22.00;;;;;;5061299;28;20119;-88
2022/08/25 03:00:12;;;;;;;9.75;6.80;;;16.50;50.30;;;;;;5081602;28;20045;-85
2022/08/25 03:03:06;;;;;;;8.60;6.47;;;16.60;1.00;;;;;;5077905;28;20060;-90
2022/08/25 03:05:56;;;;;;;9.15;6.50;;;16.60;99.90;;;;;;5077476;28;20056;-89
2022/08/25 03:08:44;;;;;;;6.07;5.35;;;16.50;99.90;;;;;;5068200;28;20056;-87
2022/08/25 03:11:33;;;;;;;6.18;5.47;;;16.30;99.90;;;;;;5072452;28;20474;-86
2022/08/25 03:14:20;;;;;;;6.63;5.40;;;16.10;99.90;;;;;;5078028;28;20443;-89
2022/08/25 03:17:08;;;;;;;6.45;5.43;;;15.90;1.00;;;;;;5069446;28;20032;-89
2022/08/25 03:19:58;;;;;;;7.38;5.90;;;15.70;99.90;;;;;;5083469;28;20183;-88
2022/08/25 03:22:45;;;;;;;6.70;5.80;;;15.60;99.90;;;;;;5049872;28;20084;-89
2022/08/25 03:28:40;;;;;;;9.00;7.50;;;15.40;99.90;;;;;;5073947;28;20044;-89
2022/08/25 03:31:35;;;;;;;9.57;7.28;;;15.30;22.20;;;;;;5067853;28;20048;-88
2022/08/25 03:34:26;;;;;;;9.80;7.32;;;15.30;99.90;;;;;;5065447;28;20149;-88
2022/08/25 03:37:13;;;;;;;15.18;10.45;;;15.40;99.90;;;;;;5073689;28;20056;-88
2022/08/25 03:40:03;;;;;;;9.05;6.43;;;15.40;1.00;;;;;;5060038;28;20337;-88
2022/08/25 03:42:55;;;;;;;7.75;5.97;;;15.40;19.40;;;;;;5052871;28;20434;-88
2022/08/25 03:45:43;;;;;;;8.40;6.22;;;15.30;1.00;;;;;;5070150;28;20044;-89
2022/08/25 03:48:33;;;;;;;6.93;6.20;;;15.30;1.00;;;;;;5060955;28;20040;-88
2022/08/25 03:51:20;;;;;;;7.95;6.43;;;15.20;1.00;;;;;;5064132;28;20120;-88
2022/08/25 03:54:11;;;;;;;8.82;6.13;;;15.10;99.90;;;;;;5092422;28;20097;-86
2022/08/25 03:56:58;;;;;;;8.40;7.07;;;14.90;99.90;;;;;;5065944;28;20395;-88
2022/08/25 03:59:46;;;;;;;9.45;7.75;;;14.80;99.90;;;;;;5060293;28;20141;-88
2022/08/25 04:02:33;;;;;;;8.77;7.28;;;14.80;99.90;;;;;;5081574;28;20135;-87
2022/08/25 04:05:20;;;;;;;9.75;7.47;;;14.70;99.90;;;;;;5071513;28;20124;-88
2022/08/25 04:08:08;;;;;;;10.52;7.53;;;14.60;1.00;;;;;;5068942;28;20435;-88
2022/08/25 04:10:57;;;;;;;10.80;7.80;;;14.60;1.00;;;;;;5075296;28;20048;-89
2022/08/25 04:13:47;;;;;;;15.90;8.73;;;14.60;1.00;;;;;;5075049;28;20037;-88
2022/08/25 04:16:37;;;;;;;14.70;8.65;;;14.60;1.00;;;;;;5076787;28;20391;-88
2022/08/25 04:19:24;;;;;;;14.57;9.05;;;14.60;1.00;;;;;;5068977;28;20048;-88
2022/08/25 04:22:13;;;;;;;11.07;8.82;;;14.60;1.00;;;;;;5083316;28;20131;-87
2022/08/25 04:25:01;;;;;;;12.43;8.57;;;14.60;1.00;;;;;;5082067;28;20052;-88
2022/08/25 04:27:48;;;;;;;13.80;9.70;;;14.50;1.00;;;;;;5066451;28;20061;-87
2022/08/25 04:30:40;;;;;;;13.45;8.70;;;14.50;1.00;;;;;;5090042;28;20090;-89
2022/08/25 04:33:29;;;;;;;17.77;10.73;;;14.50;5.80;;;;;;5093718;28;20060;-89
2022/08/25 04:36:24;;;;;;;10.57;9.07;;;14.60;24.40;;;;;;5091666;28;20053;-90
2022/08/25 04:39:15;;;;;;;11.48;7.90;;;14.80;23.00;;;;;;5075858;28;20053;-86
2022/08/25 04:42:02;;;;;;;11.48;8.55;;;15.00;4.00;;;;;;5073237;28;20041;-85
2022/08/25 04:44:49;;;;;;;11.75;9.15;;;15.00;1.00;;;;;;5068680;28;20044;-85
2022/08/25 04:47:41;;;;;;;9.98;7.90;;;14.90;1.00;;;;;;5082377;28;20098;-88
2022/08/25 04:50:31;;;;;;;9.85;7.55;;;14.80;1.00;;;;;;5065449;28;20053;-86
2022/08/25 04:53:20;;;;;;;9.68;7.32;;;14.80;1.00;;;;;;5059158;28;20040;-85
2022/08/25 04:56:14;;;;;;;7.55;6.43;;;14.90;99.90;;;;;;5072071;28;20036;-85
2022/08/25 04:59:07;;;;;;;10.98;6.80;;;14.90;99.90;;;;;;5059572;28;20134;-90
2022/08/25 05:02:01;;;;;;;10.45;8.15;;;14.90;99.90;;;;;;5067531;28;20053;-88
2022/08/25 05:04:49;;;;;;;9.18;6.80;;;14.90;99.90;;;;;;5058621;28;20074;-88
2022/08/25 05:07:40;;;;;;;8.77;6.68;;;15.00;99.90;;;;;;5059697;28;20049;-89
2022/08/25 05:10:27;;;;;;;11.70;8.07;;;15.10;99.90;;;;;;5071284;28;20182;-90
2022/08/25 05:13:16;;;;;;;9.00;7.32;;;15.10;99.90;;;;;;5079087;28;20049;-87
2022/08/25 05:16:06;;;;;;;11.25;8.27;;;15.10;99.90;;;;;;5063513;28;20044;-88
2022/08/25 05:18:57;;;;;;;11.15;7.90;;;15.20;99.90;;;;;;5084559;28;20119;-90
2022/08/25 05:21:44;;;;;;;10.15;6.85;;;15.20;99.90;;;;;;5079679;28;20040;-88
2022/08/25 05:24:32;;;;;;;8.90;7.55;;;15.20;99.90;;;;;;5084283;28;20345;-88
2022/08/25 05:27:19;;;;;;;10.00;7.85;;;15.30;99.90;;;;;;5087920;28;20052;-88
2022/08/25 05:30:08;;;;;;;13.98;7.53;;;15.30;99.90;;;;;;5078753;28;20451;-88
2022/08/25 05:32:58;;;;;;;8.05;6.57;;;15.50;99.90;;;;;;5076043;28;20126;-88
2022/08/25 05:35:47;;;;;;;8.20;6.28;;;15.60;1.00;;;;;;5076313;28;20048;-88
2022/08/25 05:38:38;;;;;;;12.35;6.40;;;15.70;1.00;;;;;;5079327;28;20430;-87
2022/08/25 05:41:29;;;;;;;8.75;6.85;;;15.80;1.00;;;;;;5087338;28;20044;-87
2022/08/25 05:44:16;;;;;;;11.00;7.25;;;16.00;99.90;;;;;;5071173;28;20060;-86
2022/08/25 05:47:07;;;;;;;8.20;6.03;;;16.00;99.90;;;;;;5090692;28;20098;-88
2022/08/25 05:49:55;;;;;;;12.13;7.03;;;16.10;99.90;;;;;;5088127;28;20068;-86
2022/08/25 05:52:43;;;;;;;11.52;7.68;;;16.20;99.90;;;;;;5081065;28;20041;-86
2022/08/25 05:55:30;;;;;;;9.57;7.15;;;16.40;99.90;;;;;;5093388;28;20036;-87
2022/08/25 05:58:17;;;;;;;11.55;7.25;;;16.50;1.00;;;;;;5099102;28;20045;-87
2022/08/25 06:04:21;;;;;;;15.32;9.88;;;16.90;1.00;;;;;;5084329;28;20044;-89
2022/08/25 06:07:09;;;;;;;19.98;10.13;;;17.20;99.90;;;;;;5088656;28;20040;-86
2022/08/25 06:09:56;;;;;;;11.52;9.15;;;17.50;1.00;;;;;;5085473;28;20041;-85
2022/08/25 06:12:44;;;;;;;10.13;7.50;;;17.60;99.90;;;;;;5081551;28;20063;-86
2022/08/25 06:15:35;;;;;;;9.43;7.35;;;17.70;78.10;;;;;;5079773;28;20131;-86
2022/08/25 06:18:22;;;;;;;9.77;7.47;;;17.80;99.90;;;;;;5079199;28;20048;-86
2022/08/25 06:21:13;;;;;;;13.40;9.70;;;17.90;99.90;;;;;;5080821;28;20044;-86
2022/08/25 06:24:00;;;;;;;12.55;8.13;;;18.00;99.90;;;;;;5077349;28;20060;-83
2022/08/25 06:26:50;;;;;;;14.73;8.43;;;18.10;99.90;;;;;;5077508;28;20063;-84
2022/08/25 06:29:40;;;;;;;12.23;7.95;;;18.30;70.40;;;;;;5083929;28;20056;-84
2022/08/25 06:32:30;;;;;;;11.02;7.90;;;18.40;1.00;;;;;;5076484;28;20091;-86
2022/08/25 06:35:18;;;;;;;8.60;7.38;;;18.60;99.90;;;;;;5061452;28;20052;-85
2022/08/25 06:38:06;;;;;;;12.75;8.05;;;18.70;99.90;;;;;;5081119;28;20123;-85
2022/08/25 06:40:55;;;;;;;10.60;8.27;;;18.80;99.90;;;;;;5068042;28;20044;-84
2022/08/25 06:43:44;;;;;;;11.27;8.57;;;19.00;99.20;;;;;;5086195;28;20052;-84
2022/08/25 06:46:38;;;;;;;10.57;8.38;;;19.10;1.00;;;;;;5070863;28;20341;-84
2022/08/25 06:49:27;;;;;;;9.73;7.93;;;19.30;1.00;;;;;;5081210;28;20399;-84
2022/08/25 06:52:21;;;;;;;9.55;7.72;;;19.50;1.00;;;;;;5076106;28;20040;-83
2022/08/25 06:55:15;;;;;;;10.52;7.53;;;19.70;99.90;;;;;;5069869;28;20075;-84
2022/08/25 06:58:03;;;;;;;9.80;7.50;;;19.90;99.90;;;;;;5079938;28;20037;-83
2022/08/25 07:00:51;;;;;;;7.85;6.93;;;20.10;59.20;;;;;;5072564;28;20056;-83
2022/08/25 07:03:39;;;;;;;9.07;6.95;;;20.40;1.00;;;;;;5069199;28;20048;-85
2022/08/25 07:06:30;;;;;;;8.40;6.60;;;20.60;1.00;;;;;;5059115;28;20041;-81
2022/08/25 07:09:20;;;;;;;12.18;5.88;;;21.10;99.90;;;;;;5076286;28;20052;-82
2022/08/25 07:12:07;;;;;;;8.30;6.55;;;21.50;98.20;;;;;;5074332;28;20123;-82
2022/08/25 07:14:55;;;;;;;7.28;5.82;;;21.90;1.00;;;;;;5063945;28;20041;-83
2022/08/25 07:18:02;;;;;;;8.40;6.65;;;22.10;99.90;;;;;;5076173;28;20055;-82
2022/08/25 07:20:52;;;;;;;8.48;6.55;;;22.20;99.90;;;;;;5076426;28;20071;-81
2022/08/25 07:23:41;;;;;;;7.35;5.38;;;22.40;99.90;;;;;;5077658;28;20044;-82
2022/08/25 07:26:33;;;;;;;6.75;5.20;;;22.60;99.90;;;;;;5063733;28;20067;-82
2022/08/25 07:29:27;;;;;;;9.55;6.00;;;22.90;99.90;;;;;;5070119;28;20040;-83
2022/08/25 07:32:19;;;;;;;8.52;5.22;;;23.00;99.90;;;;;;5075527;28;20047;-83
2022/08/25 07:35:16;;;;;;;7.63;5.28;;;23.00;99.90;;;;;;5085760;28;20040;-83
2022/08/25 07:38:08;;;;;;;6.43;5.72;;;22.90;99.90;;;;;;5088034;28;20104;-82
2022/08/25 07:41:03;;;;;;;6.75;5.60;;;23.00;99.90;;;;;;5103887;28;20029;-80
2022/08/25 07:43:51;;;;;;;9.93;5.72;;;23.20;99.90;;;;;;5089079;28;20072;-83
2022/08/25 07:46:39;;;;;;;7.15;5.32;;;23.40;99.90;;;;;;5082243;28;20056;-84
2022/08/25 07:49:35;;;;;;;8.60;5.22;;;23.80;99.90;;;;;;5085816;28;20052;-84
2022/08/25 07:52:28;;;;;;;6.68;5.45;;;24.00;87.40;;;;;;5065677;28;20060;-83
2022/08/25 07:55:19;;;;;;;6.78;5.57;;;24.30;55.00;;;;;;5056438;28;20048;-83
2022/08/25 07:58:10;;;;;;;6.93;6.18;;;24.70;36.50;;;;;;5054128;28;20044;-83
2022/08/25 08:01:00;;;;;;;9.13;5.95;;;24.90;20.80;;;;;;5069492;28;20041;-83
2022/08/25 08:03:52;;;;;;;5.25;4.75;;;25.20;14.20;;;;;;5069250;28;20045;-86
2022/08/25 08:06:41;;;;;;;5.93;4.70;;;25.50;1.00;;;;;;5084875;28;20060;-85
2022/08/25 08:09:31;;;;;;;4.93;4.28;;;25.90;1.00;;;;;;5071946;28;20040;-84
2022/08/25 08:12:18;;;;;;;6.28;5.20;;;26.50;1.00;;;;;;5068073;28;20056;-84
2022/08/25 08:15:06;;;;;;;5.95;4.47;;;27.30;1.00;;;;;;5071402;28;20033;-87
2022/08/25 08:17:58;;;;;;;5.18;4.68;;;28.00;1.00;;;;;;5059697;28;20049;-85
2022/08/25 08:20:47;;;;;;;4.97;4.47;;;28.30;1.00;;;;;;5063261;28;20091;-84
2022/08/25 08:23:35;;;;;;;4.95;4.47;;;28.70;1.00;;;;;;5072320;28;20059;-84
2022/08/25 08:26:22;;;;;;;8.13;4.25;;;28.80;1.00;;;;;;5049572;28;20052;-85
2022/08/25 08:29:32;;;;;;;4.70;4.18;;;28.90;1.00;;;;;;5061129;28;20128;-85
2022/08/25 08:32:21;;;;;;;4.82;4.28;;;29.10;1.00;;;;;;5063717;28;20044;-84
2022/08/25 08:35:21;;;;;;;7.00;4.05;;;29.10;1.00;;;;;;5061241;28;20045;-85
2022/08/25 08:38:11;;;;;;;6.63;4.38;;;29.50;1.00;;;;;;5076930;28;20044;-85
2022/08/25 08:45:10;;;;;;;5.22;4.55;;;29.30;1.00;;;;;;5083069;28;20053;-86
2022/08/25 08:48:09;;;;;;;4.97;3.85;;;29.60;1.00;;;;;;5097616;28;20144;-82
2022/08/25 08:51:12;;;;;;;4.82;4.43;;;30.20;1.00;;;;;;5080196;28;20032;-84
2022/08/25 08:54:09;;;;;;;6.63;4.40;;;30.40;1.00;;;;;;5088628;28;20148;-85
2022/08/25 08:57:08;;;;;;;5.65;3.65;;;30.40;1.00;;;;;;5076424;28;20041;-84
2022/08/25 09:00:01;;;;;;;6.60;4.38;;;29.90;1.00;;;;;;5074735;28;20124;-86
2022/08/25 09:03:03;;;;;;;5.00;4.30;;;30.20;1.00;;;;;;5059520;28;20114;-84
2022/08/25 09:05:55;;;;;;;5.70;4.18;;;30.00;1.00;;;;;;5070644;28;20044;-87
2022/08/25 09:08:43;;;;;;;5.55;4.55;;;29.50;1.00;;;;;;5075738;28;20045;-83
2022/08/25 09:11:49;;;;;;;5.10;4.40;;;29.30;1.00;;;;;;5064877;28;20455;-84
2022/08/25 09:14:51;;;;;;;6.30;4.20;;;29.70;1.00;;;;;;5076618;28;20041;-83
2022/08/25 09:17:55;;;;;;;4.32;3.92;;;30.30;1.00;;;;;;5068883;28;20071;-86
2022/08/25 09:21:26;;;;;;;5.30;4.53;;;30.90;1.00;;;;;;5072037;28;20044;-84
2022/08/25 09:24:25;;;;;;;6.22;3.92;;;31.40;1.00;;;;;;5069991;28;20048;-88
2022/08/25 09:27:26;;;;;;;6.03;3.95;;;31.50;1.00;;;;;;5070207;28;20044;-86
2022/08/25 09:30:21;;;;;;;5.18;4.32;;;31.50;1.00;;;;;;5075209;28;20139;-84
2022/08/25 09:33:17;;;;;;;5.55;3.95;;;31.20;1.00;;;;;;5057286;28;20049;-83
2022/08/25 09:36:07;;;;;;;6.72;4.40;;;31.70;1.00;;;;;;5072321;28;20044;-84
2022/08/25 09:38:57;;;;;;;5.63;4.50;;;31.30;1.00;;;;;;5067292;28;20037;-83
2022/08/25 09:41:59;;;;;;;7.93;4.63;;;31.10;1.00;;;;;;5059116;28;20047;-81
2022/08/25 09:44:48;;;;;;;4.77;4.03;;;31.50;1.00;;;;;;5066727;28;20045;-82
2022/08/25 09:47:44;;;;;;;4.43;4.03;;;32.30;1.00;;;;;;5083546;28;20045;-83
2022/08/25 09:50:32;;;;;;;4.47;4.05;;;32.40;1.00;;;;;;5050825;28;20060;-82
2022/08/25 09:53:21;;;;;;;4.18;3.78;;;33.10;1.00;;;;;;5073401;28;20107;-84
2022/08/25 09:56:12;;;;;;;6.95;3.63;;;33.80;1.00;;;;;;5071727;28;20041;-85
2022/08/25 09:59:23;;;;;;;3.97;3.53;;;34.20;1.00;;;;;;5073903;28;20048;-83
2022/08/25 10:02:28;;;;;;;5.40;3.95;;;33.20;1.00;;;;;;5081918;28;20069;-85
2022/08/25 10:05:26;;;;;;;4.15;3.70;;;32.70;1.00;;;;;;5075631;28;20038;-86
2022/08/25 10:08:30;;;;;;;4.75;3.42;;;31.80;1.00;;;;;;5080223;28;20045;-85
2022/08/25 10:11:32;;;;;;;6.03;3.70;;;33.10;1.00;;;;;;5082473;28;20049;-84
2022/08/25 10:14:39;;;;;;;5.10;4.10;;;34.20;1.00;;;;;;5077234;28;20037;-87
2022/08/25 10:17:34;;;;;;;4.10;3.70;;;34.50;99.90;;;;;;5057177;28;20496;-85
2022/08/25 10:20:24;;;;;;;3.92;3.60;;;35.40;99.90;;;;;;5067102;28;20396;-85
2022/08/25 10:23:16;;;;;;;6.50;4.25;;;34.60;99.90;;;;;;5079445;28;20044;-85
2022/08/25 10:26:31;;;;;;;7.05;4.07;;;33.00;99.90;;;;;;5082857;28;20040;-84
2022/08/25 10:29:36;;;;;;;3.90;3.53;;;31.50;1.00;;;;;;5069690;28;20099;-85
2022/08/25 10:32:29;;;;;;;7.28;3.75;;;31.90;1.00;;;;;;5061240;28;20052;-86
2022/08/25 10:35:39;;;;;;;3.72;3.33;;;32.70;99.90;;;;;;5074859;28;20378;-85
2022/08/25 10:38:48;;;;;;;4.25;3.28;;;33.60;99.90;;;;;;5071845;28;20052;-85
2022/08/25 10:42:19;;;;;;;3.65;3.13;;;33.40;99.90;;;;;;5072317;28;20130;-85
2022/08/25 10:48:51;;;;;;;4.13;3.33;;;34.70;99.90;;;;;;5070349;28;20047;-84
2022/08/25 10:51:45;;;;;;;5.28;3.20;;;35.50;99.90;;;;;;5075463;28;20443;-84
2022/08/25 10:55:00;;;;;;;4.30;3.35;;;35.20;99.90;;;;;;5078363;28;20041;-83
2022/08/25 10:58:03;;;;;;;5.45;3.10;;;34.40;99.90;;;;;;5074076;28;20060;-84
2022/08/25 11:01:04;;;;;;;3.40;3.10;;;33.50;99.90;;;;;;5069100;28;20446;-83
2022/08/25 11:04:03;;;;;;;6.07;3.22;;;34.20;99.90;;;;;;5062186;28;20044;-83
2022/08/25 11:07:06;;;;;;;3.63;3.08;;;35.20;99.90;;;;;;5073083;28;20067;-81
2022/08/25 11:10:05;;;;;;;7.60;3.00;;;36.30;99.90;;;;;;5075293;28;20501;-82
2022/08/25 11:12:59;;;;;;;3.20;2.90;;;37.30;99.90;;;;;;5056097;28;20045;-82
2022/08/25 11:16:04;;;;;;;2.60;2.38;;;37.20;99.90;;;;;;5072403;28;20055;-82
2022/08/25 11:19:22;;;;;;;2.78;2.30;;;36.60;99.90;;;;;;5073276;28;20052;-82
2022/08/25 11:22:28;;;;;;;4.72;2.78;;;37.10;99.90;;;;;;5072694;28;20041;-85
2022/08/25 11:25:28;;;;;;;3.40;2.55;;;37.40;99.90;;;;;;5073665;28;20112;-84
2022/08/25 11:28:43;;;;;;;6.57;2.72;;;38.40;99.90;;;;;;5074247;28;20066;-86
2022/08/25 11:31:43;;;;;;;4.88;2.72;;;36.30;99.90;;;;;;5076792;28;20047;-84
2022/08/25 11:34:36;;;;;;;3.67;2.60;;;35.20;99.90;;;;;;5069553;28;20049;-85
2022/08/25 11:37:31;;;;;;;2.90;2.45;;;35.60;99.90;;;;;;5057519;28;20040;-83
2022/08/25 11:40:48;;;;;;;3.25;2.10;;;36.30;99.90;;;;;;5058643;28;20036;-83
2022/08/25 11:43:52;;;;;;;2.95;2.00;;;36.90;99.90;;;;;;5071048;28;20064;-83
2022/08/25 11:46:54;;;;;;;2.55;2.20;;;37.00;99.90;;;;;;5079832;28;20052;-83
2022/08/25 11:49:41;;;;;;;1.98;1.85;;;37.10;99.90;;;;;;5063699;28;20383;-84
2022/08/25 11:52:32;;;;;;;2.28;2.15;;;37.90;99.90;;;;;;5068296;28;20052;-84
2022/08/25 11:55:35;;;;;;;2.47;2.22;;;38.70;99.90;;;;;;5078878;28;20391;-83
2022/08/25 11:58:30;;;;;;;3.03;2.30;;;39.50;99.90;;;;;;5076997;28;20696;-84
2022/08/25 12:01:41;;;;;;;3.35;1.95;;;40.50;99.90;;;;;;5065171;28;20463;-84
2022/08/25 12:04:33;;;;;;;2.83;2.37;;;39.30;99.90;;;;;;5067391;28;20053;-84
2022/08/25 12:07:46;;;;;;;5.25;2.42;;;36.80;99.90;;;;;;5075274;28;20409;-82
2022/08/25 12:10:52;;;;;;;3.03;2.40;;;35.50;99.90;;;;;;5057822;28;20044;-82
2022/08/25 12:13:42;;;;;;;2.97;2.25;;;36.80;99.90;;;;;;5072513;28;20094;-83
2022/08/25 12:16:34;;;;;;;2.58;1.90;;;37.80;99.90;;;;;;5069942;28;20162;-82
2022/08/25 12:19:30;;;;;;;3.35;2.10;;;37.80;99.90;;;;;;5072786;28;20044;-83
2022/08/25 12:22:25;;;;;;;2.30;2.08;;;38.10;99.90;;;;;;5069586;28;20040;-83
2022/08/25 12:25:30;;;;;;;2.70;2.17;;;36.20;99.90;;;;;;5071418;28;20463;-86
2022/08/25 12:28:39;;;;;;;2.78;2.30;;;35.90;99.90;;;;;;5072293;28;20103;-86
2022/08/25 12:31:46;;;;;;;2.60;2.40;;;37.60;99.90;;;;;;5052443;28;20467;-83
2022/08/25 12:34:53;;;;;;;2.47;2.28;;;38.40;99.90;;;;;;5072316;28;20041;-85
2022/08/25 12:38:00;;;;;;;2.30;2.10;;;38.80;99.90;;;;;;5071937;28;20052;-83
2022/08/25 12:40:51;;;;;;;2.17;2.00;;;39.00;99.90;;;;;;5068917;28;20133;-82
2022/08/25 12:43:44;;;;;;;5.97;2.33;;;38.30;99.90;;;;;;5074271;28;20052;-83
2022/08/25 12:46:35;;;;;;;2.38;2.17;;;39.10;99.90;;;;;;5081962;28;20037;-82
2022/08/25 12:49:31;;;;;;;3.90;2.05;;;39.30;99.90;;;;;;5073315;28;20068;-85
2022/08/25 12:52:24;;;;;;;3.70;2.22;;;39.50;99.90;;;;;;5054221;28;20052;-84
2022/08/25 12:55:18;;;;;;;3.03;1.90;;;38.90;99.90;;;;;;5052579;28;20063;-84
2022/08/25 12:58:08;;;;;;;2.50;2.20;;;38.70;99.90;;;;;;5038801;28;20471;-83
2022/08/25 13:01:16;;;;;;;2.10;1.90;;;38.50;99.90;;;;;;5041101;28;20049;-84
2022/08/25 13:04:51;;;;;;;2.55;2.20;;;37.80;99.90;;;;;;5053170;28;20071;-84
2022/08/25 13:08:34;;;;;;;2.50;2.30;;;36.50;99.90;;;;;;5052702;28;20411;-83
2022/08/25 13:11:33;;;;;;;2.53;2.33;;;35.20;99.90;;;;;;5014165;28;20046;-84
2022/08/25 13:14:36;;;;;;;2.85;2.00;;;33.70;99.90;;;;;;5052371;28;20041;-84
2022/08/25 13:17:34;;;;;;;3.13;2.50;;;32.40;99.90;;;;;;5054589;28;20045;-83
2022/08/25 13:20:28;;;;;;;3.20;2.35;;;32.80;99.90;;;;;;5053505;28;20056;-83
2022/08/25 13:23:21;;;;;;;4.30;2.53;;;34.20;99.90;;;;;;5052313;28;20053;-83
2022/08/25 13:26:19;;;;;;;5.45;2.50;;;35.50;99.90;;;;;;5049297;28;20060;-82
2022/08/25 13:29:07;;;;;;;2.60;2.10;;;36.00;99.90;;;;;;5048237;28;20059;-84
2022/08/25 13:32:15;;;;;;;2.50;2.10;;;37.70;99.90;;;;;;5061360;28;20345;-83
2022/08/25 13:35:16;;;;;;;3.35;2.08;;;39.10;99.90;;;;;;5055022;28;20187;-82
2022/08/25 13:38:18;;;;;;;2.75;1.92;;;40.10;99.90;;;;;;5034266;28;20041;-86
2022/08/25 13:41:07;;;;;;;2.40;1.98;;;39.60;99.90;;;;;;5057354;28;20127;-86
2022/08/25 13:43:57;;;;;;;4.88;1.77;;;38.90;99.90;;;;;;5056738;28;20036;-86
2022/08/25 13:47:08;;;;;;;3.28;2.00;;;39.40;99.90;;;;;;5061323;28;20451;-84
2022/08/25 13:50:33;;;;;;;2.10;1.90;;;39.40;99.90;;;;;;5055987;28;20044;-84
2022/08/25 13:53:25;;;;;;;2.78;1.58;;;39.40;99.90;;;;;;5071919;28;20052;-83
2022/08/25 13:56:38;;;;;;;2.40;2.00;;;39.00;99.90;;;;;;5076078;28;20051;-83
2022/08/25 13:59:40;;;;;;;3.38;2.00;;;38.70;99.90;;;;;;5074264;28;20056;-82
2022/08/25 14:02:51;;;;;;;3.47;1.90;;;37.90;99.90;;;;;;5067404;28;20040;-84
2022/08/25 14:05:45;;;;;;;5.05;1.90;;;37.30;99.90;;;;;;5072477;28;20139;-83
2022/08/25 14:08:37;;;;;;;2.22;2.03;;;34.40;99.90;;;;;;5073363;28;20471;-81
2022/08/25 14:11:30;;;;;;;3.92;2.30;;;32.70;99.90;;;;;;5065592;28;20063;-83
2022/08/25 14:14:23;;;;;;;2.13;1.65;;;33.50;99.90;;;;;;5082877;28;20415;-82
2022/08/25 14:17:16;;;;;;;2.90;2.20;;;33.20;99.90;;;;;;5070281;28;20053;-82
2022/08/25 14:20:28;;;;;;;1.92;1.83;;;33.40;99.90;;;;;;5069122;28;20141;-83
2022/08/25 14:23:26;;;;;;;2.67;2.08;;;34.50;99.90;;;;;;5075696;28;20137;-86
2022/08/25 14:26:14;;;;;;;3.13;1.80;;;35.00;99.90;;;;;;5080219;28;20052;-83
2022/08/25 14:29:02;;;;;;;2.00;1.80;;;35.00;99.90;;;;;;5063580;28;20352;-82
2022/08/25 14:31:55;;;;;;;1.77;1.63;;;35.40;99.90;;;;;;5061961;28;20040;-84
2022/08/25 14:34:47;;;;;;;2.65;1.95;;;36.50;99.90;;;;;;5071898;28;20463;-83
2022/08/25 14:37:35;;;;;;;1.95;1.80;;;35.80;99.90;;;;;;5059356;28;20052;-84
2022/08/25 14:40:23;;;;;;;2.45;1.85;;;35.60;99.90;;;;;;5085242;28;20427;-83
2022/08/25 14:43:11;;;;;;;3.35;1.90;;;36.40;99.90;;;;;;5082083;28;20053;-83
2022/08/25 14:46:09;;;;;;;2.08;1.73;;;37.10;99.90;;;;;;5068411;28;20128;-83
2022/08/25 14:49:09;;;;;;;2.35;2.10;;;38.20;99.90;;;;;;5074650;28;20052;-84
2022/08/25 14:52:00;;;;;;;3.13;1.80;;;37.90;99.90;;;;;;5072649;28;20041;-83
2022/08/25 14:54:48;;;;;;;3.13;1.60;;;37.10;99.90;;;;;;5069238;28;20059;-83
2022/08/25 14:57:35;;;;;;;2.08;1.60;;;36.40;99.90;;;;;;5080690;28;20102;-82
2022/08/25 15:00:25;;;;;;;2.53;1.88;;;36.20;99.90;;;;;;5074853;28;20055;-83
2022/08/25 15:03:17;;;;;;;3.50;1.80;;;37.00;99.90;;;;;;5074763;28;20139;-85
2022/08/25 15:06:09;;;;;;;2.35;1.65;;;37.10;99.90;;;;;;5064816;28;20426;-84
2022/08/25 15:09:06;;;;;;;2.05;1.85;;;37.40;99.90;;;;;;5073050;28;20044;-85
2022/08/25 15:11:55;;;;;;;4.40;1.77;;;37.70;99.90;;;;;;5068538;28;20041;-84
2022/08/25 15:14:42;;;;;;;4.18;1.63;;;38.10;99.90;;;;;;5059229;28;20052;-85
2022/08/25 15:17:31;;;;;;;2.85;1.58;;;38.60;99.90;;;;;;5072178;28;20040;-86
2022/08/25 15:20:18;;;;;;;1.73;1.50;;;38.50;99.90;;;;;;5069884;28;20053;-86